sensor_id;sensor_type;location;lat;lon;timestamp;P1;durP1;ratioP1;P2;durP2;ratioP2
8993;SDS011;4532;50.886;4.700;2023-09-07T00:00:53;7.82;;;6.28;;
8993;SDS011;4532;50.886;4.700;2023-09-07T00:03:22;6.80;;;6.10;;
8993;SDS011;4532;50.886;4.700;2023-09-07T00:05:49;9.27;;;6.40;;
8993;SDS011;4532;50.886;4.700;2023-09-07T00:08:17;7.50;;;6.50;;
8993;SDS011;4532;50.886;4.700;2023-09-07T00:10:46;8.48;;;6.70;;
8993;SDS011;4532;50.886;4.700;2023-09-07T00:13:13;7.97;;;6.03;;
8993;SDS011;4532;50.886;4.700;2023-09-07T00:15:40;8.05;;;6.60;;
8993;SDS011;4532;50.886;4.700;2023-09-07T00:18:08;10.60;;;7.15;;
8993;SDS011;4532;50.886;4.700;2023-09-07T00:20:37;11.07;;;6.65;;
8993;SDS011;4532;50.886;4.700;2023-09-07T00:23:05;9.45;;;6.65;;
8993;SDS011;4532;50.886;4.700;2023-09-07T00:25:32;8.70;;;7.25;;
8993;SDS011;4532;50.886;4.700;2023-09-07T00:28:00;9.05;;;6.43;;
8993;SDS011;4532;50.886;4.700;2023-09-07T00:30:27;9.18;;;6.97;;
8993;SDS011;4532;50.886;4.700;2023-09-07T00:32:54;10.20;;;7.05;;
8993;SDS011;4532;50.886;4.700;2023-09-07T00:35:23;9.43;;;7.13;;
8993;SDS011;4532;50.886;4.700;2023-09-07T00:37:53;12.20;;;6.68;;
8993;SDS011;4532;50.886;4.700;2023-09-07T00:40:21;10.23;;;6.93;;
8993;SDS011;4532;50.886;4.700;2023-09-07T00:42:49;7.60;;;6.50;;
8993;SDS011;4532;50.886;4.700;2023-09-07T00:45:16;9.63;;;7.47;;
8993;SDS011;4532;50.886;4.700;2023-09-07T00:47:43;9.10;;;7.15;;
8993;SDS011;4532;50.886;4.700;2023-09-07T00:50:15;8.27;;;6.80;;
8993;SDS011;4532;50.886;4.700;2023-09-07T00:52:45;10.73;;;7.18;;
8993;SDS011;4532;50.886;4.700;2023-09-07T00:55:13;7.65;;;6.53;;
8993;SDS011;4532;50.886;4.700;2023-09-07T00:57:44;9.55;;;7.00;;
8993;SDS011;4532;50.886;4.700;2023-09-07T01:00:11;8.27;;;6.63;;
8993;SDS011;4532;50.886;4.700;2023-09-07T01:02:41;9.23;;;7.03;;
8993;SDS011;4532;50.886;4.700;2023-09-07T01:05:11;12.27;;;7.40;;
8993;SDS011;4532;50.886;4.700;2023-09-07T01:07:46;11.38;;;7.35;;
8993;SDS011;4532;50.886;4.700;2023-09-07T01:10:20;12.13;;;7.40;;
8993;SDS011;4532;50.886;4.700;2023-09-07T01:12:49;8.40;;;7.57;;
8993;SDS011;4532;50.886;4.700;2023-09-07T01:15:16;11.73;;;7.63;;
8993;SDS011;4532;50.886;4.700;2023-09-07T01:17:43;11.82;;;7.47;;
8993;SDS011;4532;50.886;4.700;2023-09-07T01:20:16;8.23;;;7.05;;
8993;SDS011;4532;50.886;4.700;2023-09-07T01:22:46;10.48;;;7.65;;
8993;SDS011;4532;50.886;4.700;2023-09-07T01:25:14;9.60;;;7.90;;
8993;SDS011;4532;50.886;4.700;2023-09-07T01:27:44;10.68;;;7.43;;
8993;SDS011;4532;50.886;4.700;2023-09-07T01:30:16;9.65;;;7.65;;
8993;SDS011;4532;50.886;4.700;2023-09-07T01:32:44;11.80;;;7.53;;
8993;SDS011;4532;50.886;4.700;2023-09-07T01:35:11;9.07;;;7.45;;
8993;SDS011;4532;50.886;4.700;2023-09-07T01:37:41;10.35;;;7.57;;
8993;SDS011;4532;50.886;4.700;2023-09-07T01:40:10;14.15;;;7.72;;
8993;SDS011;4532;50.886;4.700;2023-09-07T01:42:40;9.95;;;7.50;;
8993;SDS011;4532;50.886;4.700;2023-09-07T01:45:07;9.57;;;7.80;;
8993;SDS011;4532;50.886;4.700;2023-09-07T01:47:37;9.30;;;8.30;;
8993;SDS011;4532;50.886;4.700;2023-09-07T01:50:05;12.73;;;7.78;;
8993;SDS011;4532;50.886;4.700;2023-09-07T01:52:34;9.93;;;8.13;;
8993;SDS011;4532;50.886;4.700;2023-09-07T01:55:02;9.65;;;8.48;;
8993;SDS011;4532;50.886;4.700;2023-09-07T01:57:31;10.88;;;7.93;;
8993;SDS011;4532;50.886;4.700;2023-09-07T02:00:01;11.40;;;7.95;;
8993;SDS011;4532;50.886;4.700;2023-09-07T02:02:30;10.23;;;7.63;;
8993;SDS011;4532;50.886;4.700;2023-09-07T02:04:59;9.90;;;8.02;;
8993;SDS011;4532;50.886;4.700;2023-09-07T02:07:29;10.95;;;8.07;;
8993;SDS011;4532;50.886;4.700;2023-09-07T02:09:58;9.20;;;8.20;;
8993;SDS011;4532;50.886;4.700;2023-09-07T02:12:29;15.82;;;8.10;;
8993;SDS011;4532;50.886;4.700;2023-09-07T02:14:58;11.77;;;8.45;;
8993;SDS011;4532;50.886;4.700;2023-09-07T02:17:30;13.77;;;8.50;;
8993;SDS011;4532;50.886;4.700;2023-09-07T02:20:02;10.63;;;8.18;;
8993;SDS011;4532;50.886;4.700;2023-09-07T02:22:35;11.18;;;8.65;;
8993;SDS011;4532;50.886;4.700;2023-09-07T02:25:02;9.30;;;8.05;;
8993;SDS011;4532;50.886;4.700;2023-09-07T02:27:33;11.85;;;8.10;;
8993;SDS011;4532;50.886;4.700;2023-09-07T02:30:03;10.82;;;8.35;;
8993;SDS011;4532;50.886;4.700;2023-09-07T02:32:31;9.00;;;8.05;;
8993;SDS011;4532;50.886;4.700;2023-09-07T02:35:01;9.75;;;7.80;;
8993;SDS011;4532;50.886;4.700;2023-09-07T02:37:28;10.35;;;8.32;;
8993;SDS011;4532;50.886;4.700;2023-09-07T02:39:58;10.32;;;7.47;;
8993;SDS011;4532;50.886;4.700;2023-09-07T02:42:25;9.70;;;7.97;;
8993;SDS011;4532;50.886;4.700;2023-09-07T02:44:52;11.15;;;8.43;;
8993;SDS011;4532;50.886;4.700;2023-09-07T02:47:20;10.95;;;8.38;;
8993;SDS011;4532;50.886;4.700;2023-09-07T02:49:48;14.40;;;8.70;;
8993;SDS011;4532;50.886;4.700;2023-09-07T02:52:15;9.70;;;8.45;;
8993;SDS011;4532;50.886;4.700;2023-09-07T02:54:45;12.48;;;8.55;;
8993;SDS011;4532;50.886;4.700;2023-09-07T02:57:15;11.82;;;8.63;;
8993;SDS011;4532;50.886;4.700;2023-09-07T02:59:42;10.18;;;8.05;;
8993;SDS011;4532;50.886;4.700;2023-09-07T03:02:13;14.68;;;8.18;;
8993;SDS011;4532;50.886;4.700;2023-09-07T03:04:43;10.98;;;8.35;;
8993;SDS011;4532;50.886;4.700;2023-09-07T03:07:10;10.27;;;8.60;;
8993;SDS011;4532;50.886;4.700;2023-09-07T03:09:37;10.88;;;8.45;;
8993;SDS011;4532;50.886;4.700;2023-09-07T03:12:05;11.88;;;9.07;;
8993;SDS011;4532;50.886;4.700;2023-09-07T03:14:32;11.35;;;8.50;;
8993;SDS011;4532;50.886;4.700;2023-09-07T03:16:59;11.38;;;8.93;;
8993;SDS011;4532;50.886;4.700;2023-09-07T03:19:29;13.40;;;8.38;;
8993;SDS011;4532;50.886;4.700;2023-09-07T03:21:59;10.85;;;9.10;;
8993;SDS011;4532;50.886;4.700;2023-09-07T03:24:26;10.32;;;8.73;;
8993;SDS011;4532;50.886;4.700;2023-09-07T03:26:54;20.33;;;9.75;;
8993;SDS011;4532;50.886;4.700;2023-09-07T03:29:24;10.48;;;8.43;;
8993;SDS011;4532;50.886;4.700;2023-09-07T03:31:53;11.77;;;9.05;;
8993;SDS011;4532;50.886;4.700;2023-09-07T03:34:21;11.93;;;9.45;;
8993;SDS011;4532;50.886;4.700;2023-09-07T03:36:53;9.90;;;8.90;;
8993;SDS011;4532;50.886;4.700;2023-09-07T03:39:24;12.23;;;9.55;;
8993;SDS011;4532;50.886;4.700;2023-09-07T03:41:53;14.65;;;9.15;;
8993;SDS011;4532;50.886;4.700;2023-09-07T03:44:22;10.52;;;9.43;;
8993;SDS011;4532;50.886;4.700;2023-09-07T03:46:51;10.07;;;8.55;;
8993;SDS011;4532;50.886;4.700;2023-09-07T03:49:21;12.75;;;9.02;;
8993;SDS011;4532;50.886;4.700;2023-09-07T03:51:48;11.48;;;9.20;;
8993;SDS011;4532;50.886;4.700;2023-09-07T03:54:18;10.68;;;9.30;;
8993;SDS011;4532;50.886;4.700;2023-09-07T03:56:47;14.75;;;9.55;;
8993;SDS011;4532;50.886;4.700;2023-09-07T03:59:16;11.60;;;8.90;;
8993;SDS011;4532;50.886;4.700;2023-09-07T04:01:46;11.05;;;9.20;;
8993;SDS011;4532;50.886;4.700;2023-09-07T04:04:15;10.85;;;8.70;;
8993;SDS011;4532;50.886;4.700;2023-09-07T04:06:48;10.45;;;9.35;;
8993;SDS011;4532;50.886;4.700;2023-09-07T04:09:16;11.60;;;9.55;;
8993;SDS011;4532;50.886;4.700;2023-09-07T04:11:45;14.98;;;9.60;;
8993;SDS011;4532;50.886;4.700;2023-09-07T04:14:12;10.93;;;9.68;;
8993;SDS011;4532;50.886;4.700;2023-09-07T04:16:39;12.43;;;9.13;;
8993;SDS011;4532;50.886;4.700;2023-09-07T04:19:09;11.27;;;9.43;;
8993;SDS011;4532;50.886;4.700;2023-09-07T04:21:37;12.98;;;9.52;;
8993;SDS011;4532;50.886;4.700;2023-09-07T04:24:05;11.32;;;9.13;;
8993;SDS011;4532;50.886;4.700;2023-09-07T04:26:37;11.90;;;9.15;;
8993;SDS011;4532;50.886;4.700;2023-09-07T04:29:04;11.45;;;9.70;;
8993;SDS011;4532;50.886;4.700;2023-09-07T04:31:34;12.40;;;9.27;;
8993;SDS011;4532;50.886;4.700;2023-09-07T04:34:03;10.65;;;9.43;;
8993;SDS011;4532;50.886;4.700;2023-09-07T04:36:31;11.15;;;9.80;;
8993;SDS011;4532;50.886;4.700;2023-09-07T04:38:58;11.55;;;9.07;;
8993;SDS011;4532;50.886;4.700;2023-09-07T04:41:25;13.30;;;9.52;;
8993;SDS011;4532;50.886;4.700;2023-09-07T04:43:55;13.45;;;9.35;;
8993;SDS011;4532;50.886;4.700;2023-09-07T04:46:26;13.65;;;10.13;;
8993;SDS011;4532;50.886;4.700;2023-09-07T04:48:55;12.38;;;9.90;;
8993;SDS011;4532;50.886;4.700;2023-09-07T04:51:25;12.68;;;9.80;;
8993;SDS011;4532;50.886;4.700;2023-09-07T04:53:53;12.57;;;9.57;;
8993;SDS011;4532;50.886;4.700;2023-09-07T04:56:21;13.43;;;9.63;;
8993;SDS011;4532;50.886;4.700;2023-09-07T04:58:48;12.88;;;9.85;;
8993;SDS011;4532;50.886;4.700;2023-09-07T05:01:18;18.23;;;9.65;;
8993;SDS011;4532;50.886;4.700;2023-09-07T05:03:45;30.02;;;11.05;;
8993;SDS011;4532;50.886;4.700;2023-09-07T05:06:13;19.30;;;11.05;;
8993;SDS011;4532;50.886;4.700;2023-09-07T05:08:44;12.38;;;9.63;;
8993;SDS011;4532;50.886;4.700;2023-09-07T05:11:13;13.88;;;10.68;;
8993;SDS011;4532;50.886;4.700;2023-09-07T05:13:43;28.98;;;11.40;;
8993;SDS011;4532;50.886;4.700;2023-09-07T05:16:10;28.60;;;10.98;;
8993;SDS011;4532;50.886;4.700;2023-09-07T05:18:37;18.00;;;9.75;;
8993;SDS011;4532;50.886;4.700;2023-09-07T05:21:14;14.00;;;10.05;;
8993;SDS011;4532;50.886;4.700;2023-09-07T05:23:46;38.47;;;12.35;;
8993;SDS011;4532;50.886;4.700;2023-09-07T05:26:13;21.75;;;11.02;;
8993;SDS011;4532;50.886;4.700;2023-09-07T05:28:40;31.15;;;11.45;;
8993;SDS011;4532;50.886;4.700;2023-09-07T05:31:10;20.75;;;10.60;;
8993;SDS011;4532;50.886;4.700;2023-09-07T05:33:40;15.27;;;9.52;;
8993;SDS011;4532;50.886;4.700;2023-09-07T05:36:12;16.45;;;9.95;;
8993;SDS011;4532;50.886;4.700;2023-09-07T05:38:42;14.40;;;10.50;;
8993;SDS011;4532;50.886;4.700;2023-09-07T05:41:09;12.50;;;10.10;;
8993;SDS011;4532;50.886;4.700;2023-09-07T05:43:36;16.55;;;10.07;;
8993;SDS011;4532;50.886;4.700;2023-09-07T05:46:05;17.95;;;10.25;;
8993;SDS011;4532;50.886;4.700;2023-09-07T05:48:35;15.10;;;9.27;;
8993;SDS011;4532;50.886;4.700;2023-09-07T05:51:07;14.52;;;9.68;;
8993;SDS011;4532;50.886;4.700;2023-09-07T05:53:38;12.60;;;9.30;;
8993;SDS011;4532;50.886;4.700;2023-09-07T05:56:08;16.42;;;10.70;;
8993;SDS011;4532;50.886;4.700;2023-09-07T05:58:38;17.13;;;10.18;;
8993;SDS011;4532;50.886;4.700;2023-09-07T06:01:09;14.82;;;9.60;;
8993;SDS011;4532;50.886;4.700;2023-09-07T06:03:39;19.38;;;10.80;;
8993;SDS011;4532;50.886;4.700;2023-09-07T06:06:10;14.05;;;9.90;;
8993;SDS011;4532;50.886;4.700;2023-09-07T06:08:37;17.10;;;10.32;;
8993;SDS011;4532;50.886;4.700;2023-09-07T06:11:04;20.60;;;10.45;;
8993;SDS011;4532;50.886;4.700;2023-09-07T06:13:34;16.38;;;10.40;;
8993;SDS011;4532;50.886;4.700;2023-09-07T06:16:01;16.58;;;11.30;;
8993;SDS011;4532;50.886;4.700;2023-09-07T06:18:31;24.60;;;11.32;;
8993;SDS011;4532;50.886;4.700;2023-09-07T06:20:59;18.77;;;11.85;;
8993;SDS011;4532;50.886;4.700;2023-09-07T06:23:26;20.17;;;10.88;;
8993;SDS011;4532;50.886;4.700;2023-09-07T06:25:56;18.58;;;10.95;;
8993;SDS011;4532;50.886;4.700;2023-09-07T06:28:23;21.63;;;11.60;;
8993;SDS011;4532;50.886;4.700;2023-09-07T06:30:50;17.45;;;11.05;;
8993;SDS011;4532;50.886;4.700;2023-09-07T06:33:20;17.45;;;11.93;;
8993;SDS011;4532;50.886;4.700;2023-09-07T06:35:52;18.77;;;11.98;;
8993;SDS011;4532;50.886;4.700;2023-09-07T06:38:26;17.27;;;11.30;;
8993;SDS011;4532;50.886;4.700;2023-09-07T06:40:55;17.52;;;11.40;;
8993;SDS011;4532;50.886;4.700;2023-09-07T06:43:25;14.93;;;11.10;;
8993;SDS011;4532;50.886;4.700;2023-09-07T06:45:53;14.60;;;12.25;;
8993;SDS011;4532;50.886;4.700;2023-09-07T06:48:20;19.17;;;11.30;;
8993;SDS011;4532;50.886;4.700;2023-09-07T06:50:49;20.33;;;11.30;;
8993;SDS011;4532;50.886;4.700;2023-09-07T06:53:17;13.38;;;10.15;;
8993;SDS011;4532;50.886;4.700;2023-09-07T06:55:49;13.18;;;9.50;;
8993;SDS011;4532;50.886;4.700;2023-09-07T06:58:24;14.25;;;10.75;;
8993;SDS011;4532;50.886;4.700;2023-09-07T07:00:58;16.63;;;10.75;;
8993;SDS011;4532;50.886;4.700;2023-09-07T07:03:26;13.07;;;10.70;;
8993;SDS011;4532;50.886;4.700;2023-09-07T07:05:55;12.57;;;10.15;;
8993;SDS011;4532;50.886;4.700;2023-09-07T07:08:23;14.57;;;9.77;;
8993;SDS011;4532;50.886;4.700;2023-09-07T07:10:50;13.57;;;9.60;;
8993;SDS011;4532;50.886;4.700;2023-09-07T07:13:22;14.27;;;8.98;;
8993;SDS011;4532;50.886;4.700;2023-09-07T07:15:49;16.90;;;9.43;;
8993;SDS011;4532;50.886;4.700;2023-09-07T07:18:16;10.75;;;7.93;;
8993;SDS011;4532;50.886;4.700;2023-09-07T07:20:43;15.35;;;7.13;;
8993;SDS011;4532;50.886;4.700;2023-09-07T07:23:11;13.02;;;7.18;;
8993;SDS011;4532;50.886;4.700;2023-09-07T07:25:39;20.55;;;7.03;;
8993;SDS011;4532;50.886;4.700;2023-09-07T07:28:08;13.48;;;6.80;;
8993;SDS011;4532;50.886;4.700;2023-09-07T07:30:37;12.50;;;6.85;;
8993;SDS011;4532;50.886;4.700;2023-09-07T07:33:09;8.88;;;6.30;;
8993;SDS011;4532;50.886;4.700;2023-09-07T07:35:38;11.98;;;6.72;;
8993;SDS011;4532;50.886;4.700;2023-09-07T07:38:11;7.40;;;5.68;;
8993;SDS011;4532;50.886;4.700;2023-09-07T07:40:41;11.18;;;6.22;;
8993;SDS011;4532;50.886;4.700;2023-09-07T07:43:09;8.88;;;5.60;;
8993;SDS011;4532;50.886;4.700;2023-09-07T07:45:37;8.50;;;4.95;;
8993;SDS011;4532;50.886;4.700;2023-09-07T07:48:05;10.55;;;6.15;;
8993;SDS011;4532;50.886;4.700;2023-09-07T07:50:38;10.95;;;5.97;;
8993;SDS011;4532;50.886;4.700;2023-09-07T07:53:10;12.00;;;6.45;;
8993;SDS011;4532;50.886;4.700;2023-09-07T07:55:41;11.68;;;5.38;;
8993;SDS011;4532;50.886;4.700;2023-09-07T07:58:11;9.50;;;5.55;;
8993;SDS011;4532;50.886;4.700;2023-09-07T08:00:38;6.00;;;4.88;;
8993;SDS011;4532;50.886;4.700;2023-09-07T08:03:09;10.00;;;5.70;;
8993;SDS011;4532;50.886;4.700;2023-09-07T08:05:37;9.25;;;5.18;;
8993;SDS011;4532;50.886;4.700;2023-09-07T08:08:09;9.40;;;5.57;;
8993;SDS011;4532;50.886;4.700;2023-09-07T08:10:39;8.88;;;5.47;;
8993;SDS011;4532;50.886;4.700;2023-09-07T08:13:08;7.78;;;4.97;;
8993;SDS011;4532;50.886;4.700;2023-09-07T08:15:40;6.03;;;5.05;;
8993;SDS011;4532;50.886;4.700;2023-09-07T08:18:12;5.93;;;5.05;;
8993;SDS011;4532;50.886;4.700;2023-09-07T08:20:40;5.20;;;4.70;;
8993;SDS011;4532;50.886;4.700;2023-09-07T08:23:08;6.03;;;4.68;;
8993;SDS011;4532;50.886;4.700;2023-09-07T08:25:37;8.20;;;5.25;;
8993;SDS011;4532;50.886;4.700;2023-09-07T08:28:11;6.82;;;4.57;;
8993;SDS011;4532;50.886;4.700;2023-09-07T08:30:41;7.50;;;4.97;;
8993;SDS011;4532;50.886;4.700;2023-09-07T08:33:09;6.05;;;4.88;;
8993;SDS011;4532;50.886;4.700;2023-09-07T08:35:36;6.13;;;4.68;;
8993;SDS011;4532;50.886;4.700;2023-09-07T08:38:11;7.03;;;5.22;;
8993;SDS011;4532;50.886;4.700;2023-09-07T08:40:38;7.35;;;4.43;;
8993;SDS011;4532;50.886;4.700;2023-09-07T08:43:10;5.60;;;4.68;;
8993;SDS011;4532;50.886;4.700;2023-09-07T08:45:46;8.90;;;5.20;;
8993;SDS011;4532;50.886;4.700;2023-09-07T08:48:26;12.95;;;4.53;;
8993;SDS011;4532;50.886;4.700;2023-09-07T08:50:59;8.18;;;4.50;;
8993;SDS011;4532;50.886;4.700;2023-09-07T08:53:27;7.10;;;4.45;;
8993;SDS011;4532;50.886;4.700;2023-09-07T08:55:59;10.73;;;4.20;;
8993;SDS011;4532;50.886;4.700;2023-09-07T08:58:28;38.92;;;8.65;;
8993;SDS011;4532;50.886;4.700;2023-09-07T09:00:59;15.38;;;5.75;;
8993;SDS011;4532;50.886;4.700;2023-09-07T09:03:29;9.60;;;4.25;;
8993;SDS011;4532;50.886;4.700;2023-09-07T09:06:04;10.15;;;4.80;;
8993;SDS011;4532;50.886;4.700;2023-09-07T09:08:44;12.05;;;4.80;;
8993;SDS011;4532;50.886;4.700;2023-09-07T09:11:19;11.88;;;4.50;;
8993;SDS011;4532;50.886;4.700;2023-09-07T09:13:53;8.43;;;4.30;;
8993;SDS011;4532;50.886;4.700;2023-09-07T09:16:22;9.00;;;4.30;;
8993;SDS011;4532;50.886;4.700;2023-09-07T09:18:50;7.18;;;4.20;;
8993;SDS011;4532;50.886;4.700;2023-09-07T09:21:22;5.35;;;3.75;;
8993;SDS011;4532;50.886;4.700;2023-09-07T09:23:56;12.05;;;4.55;;
8993;SDS011;4532;50.886;4.700;2023-09-07T09:26:29;8.98;;;4.13;;
8993;SDS011;4532;50.886;4.700;2023-09-07T09:28:59;7.25;;;3.92;;
8993;SDS011;4532;50.886;4.700;2023-09-07T09:31:32;7.70;;;3.92;;
8993;SDS011;4532;50.886;4.700;2023-09-07T09:34:00;7.07;;;3.63;;
8993;SDS011;4532;50.886;4.700;2023-09-07T09:36:32;9.45;;;3.72;;
8993;SDS011;4532;50.886;4.700;2023-09-07T09:39:03;9.85;;;4.25;;
8993;SDS011;4532;50.886;4.700;2023-09-07T09:41:33;5.32;;;3.72;;
8993;SDS011;4532;50.886;4.700;2023-09-07T09:44:05;6.28;;;3.65;;
8993;SDS011;4532;50.886;4.700;2023-09-07T09:46:35;7.00;;;4.28;;
8993;SDS011;4532;50.886;4.700;2023-09-07T09:49:03;6.15;;;3.80;;
8993;SDS011;4532;50.886;4.700;2023-09-07T09:51:38;9.52;;;4.03;;
8993;SDS011;4532;50.886;4.700;2023-09-07T09:54:09;10.23;;;3.90;;
8993;SDS011;4532;50.886;4.700;2023-09-07T09:56:39;8.07;;;4.30;;
8993;SDS011;4532;50.886;4.700;2023-09-07T09:59:10;5.55;;;3.40;;
8993;SDS011;4532;50.886;4.700;2023-09-07T10:01:43;5.15;;;3.20;;
8993;SDS011;4532;50.886;4.700;2023-09-07T10:04:12;4.82;;;3.67;;
8993;SDS011;4532;50.886;4.700;2023-09-07T10:06:53;4.43;;;3.45;;
8993;SDS011;4532;50.886;4.700;2023-09-07T10:09:21;5.93;;;3.60;;
8993;SDS011;4532;50.886;4.700;2023-09-07T10:11:52;4.88;;;3.63;;
8993;SDS011;4532;50.886;4.700;2023-09-07T10:14:20;5.90;;;3.47;;
8993;SDS011;4532;50.886;4.700;2023-09-07T10:16:49;4.22;;;3.33;;
8993;SDS011;4532;50.886;4.700;2023-09-07T10:19:20;3.97;;;3.22;;
8993;SDS011;4532;50.886;4.700;2023-09-07T10:21:48;6.03;;;3.38;;
8993;SDS011;4532;50.886;4.700;2023-09-07T10:24:31;8.07;;;3.70;;
8993;SDS011;4532;50.886;4.700;2023-09-07T10:27:07;4.78;;;3.92;;
8993;SDS011;4532;50.886;4.700;2023-09-07T10:32:28;6.60;;;4.00;;
8993;SDS011;4532;50.886;4.700;2023-09-07T10:35:14;6.07;;;4.05;;
8993;SDS011;4532;50.886;4.700;2023-09-07T10:37:48;5.00;;;3.58;;
8993;SDS011;4532;50.886;4.700;2023-09-07T10:40:21;3.80;;;3.38;;
8993;SDS011;4532;50.886;4.700;2023-09-07T10:42:49;10.23;;;3.88;;
8993;SDS011;4532;50.886;4.700;2023-09-07T10:45:19;8.00;;;3.70;;
8993;SDS011;4532;50.886;4.700;2023-09-07T10:47:51;5.63;;;3.30;;
8993;SDS011;4532;50.886;4.700;2023-09-07T10:50:20;4.93;;;3.40;;
8993;SDS011;4532;50.886;4.700;2023-09-07T10:52:48;5.93;;;3.30;;
8993;SDS011;4532;50.886;4.700;2023-09-07T10:55:15;5.65;;;3.22;;
8993;SDS011;4532;50.886;4.700;2023-09-07T10:57:43;7.07;;;3.58;;
8993;SDS011;4532;50.886;4.700;2023-09-07T11:00:16;4.85;;;3.45;;
8993;SDS011;4532;50.886;4.700;2023-09-07T11:02:43;3.95;;;3.22;;
8993;SDS011;4532;50.886;4.700;2023-09-07T11:05:15;4.50;;;3.53;;
8993;SDS011;4532;50.886;4.700;2023-09-07T11:07:45;9.55;;;3.45;;
8993;SDS011;4532;50.886;4.700;2023-09-07T11:10:12;6.85;;;3.28;;
8993;SDS011;4532;50.886;4.700;2023-09-07T11:12:41;17.67;;;4.43;;
8993;SDS011;4532;50.886;4.700;2023-09-07T11:15:09;5.32;;;3.55;;
8993;SDS011;4532;50.886;4.700;2023-09-07T11:17:39;5.13;;;3.60;;
8993;SDS011;4532;50.886;4.700;2023-09-07T11:20:07;4.75;;;3.35;;
8993;SDS011;4532;50.886;4.700;2023-09-07T11:22:37;7.82;;;3.28;;
8993;SDS011;4532;50.886;4.700;2023-09-07T11:25:24;4.22;;;3.65;;
8993;SDS011;4532;50.886;4.700;2023-09-07T11:27:54;4.88;;;3.58;;
8993;SDS011;4532;50.886;4.700;2023-09-07T11:30:26;5.57;;;3.72;;
8993;SDS011;4532;50.886;4.700;2023-09-07T11:33:00;4.88;;;3.50;;
8993;SDS011;4532;50.886;4.700;2023-09-07T11:35:38;6.05;;;3.88;;
8993;SDS011;4532;50.886;4.700;2023-09-07T11:38:08;5.30;;;3.65;;
8993;SDS011;4532;50.886;4.700;2023-09-07T11:40:39;5.22;;;3.35;;
8993;SDS011;4532;50.886;4.700;2023-09-07T11:43:06;9.15;;;3.75;;
8993;SDS011;4532;50.886;4.700;2023-09-07T11:45:34;4.75;;;4.00;;
8993;SDS011;4532;50.886;4.700;2023-09-07T11:48:03;4.32;;;3.72;;
8993;SDS011;4532;50.886;4.700;2023-09-07T11:50:31;9.73;;;3.92;;
8993;SDS011;4532;50.886;4.700;2023-09-07T11:53:01;4.05;;;3.45;;
8993;SDS011;4532;50.886;4.700;2023-09-07T11:55:30;4.72;;;3.75;;
8993;SDS011;4532;50.886;4.700;2023-09-07T11:57:58;7.88;;;3.97;;
8993;SDS011;4532;50.886;4.700;2023-09-07T12:00:27;5.85;;;3.47;;
8993;SDS011;4532;50.886;4.700;2023-09-07T12:03:00;8.43;;;3.83;;
8993;SDS011;4532;50.886;4.700;2023-09-07T12:05:29;5.32;;;3.53;;
8993;SDS011;4532;50.886;4.700;2023-09-07T12:07:57;15.02;;;4.40;;
8993;SDS011;4532;50.886;4.700;2023-09-07T12:10:32;6.60;;;3.97;;
8993;SDS011;4532;50.886;4.700;2023-09-07T12:13:02;4.28;;;3.67;;
8993;SDS011;4532;50.886;4.700;2023-09-07T12:15:32;6.45;;;3.53;;
8993;SDS011;4532;50.886;4.700;2023-09-07T12:17:59;5.53;;;3.90;;
8993;SDS011;4532;50.886;4.700;2023-09-07T12:20:29;6.07;;;3.80;;
8993;SDS011;4532;50.886;4.700;2023-09-07T12:22:57;7.40;;;4.20;;
8993;SDS011;4532;50.886;4.700;2023-09-07T12:25:24;10.32;;;4.13;;
8993;SDS011;4532;50.886;4.700;2023-09-07T12:27:53;5.45;;;3.85;;
8993;SDS011;4532;50.886;4.700;2023-09-07T12:30:21;5.60;;;3.65;;
8993;SDS011;4532;50.886;4.700;2023-09-07T12:32:50;6.03;;;3.75;;
8993;SDS011;4532;50.886;4.700;2023-09-07T12:35:18;5.20;;;4.03;;
8993;SDS011;4532;50.886;4.700;2023-09-07T12:37:49;7.45;;;4.30;;
8993;SDS011;4532;50.886;4.700;2023-09-07T12:40:16;9.50;;;4.30;;
8993;SDS011;4532;50.886;4.700;2023-09-07T12:42:44;8.40;;;4.07;;
8993;SDS011;4532;50.886;4.700;2023-09-07T12:45:14;5.35;;;3.90;;
8993;SDS011;4532;50.886;4.700;2023-09-07T12:47:42;8.50;;;4.28;;
8993;SDS011;4532;50.886;4.700;2023-09-07T12:50:11;4.55;;;4.10;;
8993;SDS011;4532;50.886;4.700;2023-09-07T12:52:43;6.75;;;4.22;;
8993;SDS011;4532;50.886;4.700;2023-09-07T12:55:10;8.95;;;4.20;;
8993;SDS011;4532;50.886;4.700;2023-09-07T12:57:40;6.03;;;3.72;;
8993;SDS011;4532;50.886;4.700;2023-09-07T13:00:07;9.52;;;3.63;;
8993;SDS011;4532;50.886;4.700;2023-09-07T13:02:35;5.45;;;3.83;;
8993;SDS011;4532;50.886;4.700;2023-09-07T13:05:03;5.40;;;3.90;;
8993;SDS011;4532;50.886;4.700;2023-09-07T13:07:32;6.22;;;3.50;;
8993;SDS011;4532;50.886;4.700;2023-09-07T13:10:01;6.90;;;4.13;;
8993;SDS011;4532;50.886;4.700;2023-09-07T13:12:31;3.78;;;3.47;;
8993;SDS011;4532;50.886;4.700;2023-09-07T13:15:02;5.93;;;3.80;;
8993;SDS011;4532;50.886;4.700;2023-09-07T13:17:32;3.97;;;3.33;;
8993;SDS011;4532;50.886;4.700;2023-09-07T13:19:59;3.85;;;3.47;;
8993;SDS011;4532;50.886;4.700;2023-09-07T13:22:28;4.13;;;3.75;;
8993;SDS011;4532;50.886;4.700;2023-09-07T13:24:56;4.72;;;3.55;;
8993;SDS011;4532;50.886;4.700;2023-09-07T13:27:25;4.82;;;3.78;;
8993;SDS011;4532;50.886;4.700;2023-09-07T13:29:52;5.82;;;3.50;;
8993;SDS011;4532;50.886;4.700;2023-09-07T13:32:25;14.02;;;4.03;;
8993;SDS011;4532;50.886;4.700;2023-09-07T13:34:55;8.82;;;4.50;;
8993;SDS011;4532;50.886;4.700;2023-09-07T13:37:26;5.78;;;3.85;;
8993;SDS011;4532;50.886;4.700;2023-09-07T13:39:53;13.77;;;4.30;;
8993;SDS011;4532;50.886;4.700;2023-09-07T13:42:21;5.90;;;3.70;;
8993;SDS011;4532;50.886;4.700;2023-09-07T13:44:48;12.88;;;4.03;;
8993;SDS011;4532;50.886;4.700;2023-09-07T13:47:22;4.68;;;3.55;;
8993;SDS011;4532;50.886;4.700;2023-09-07T13:49:50;7.20;;;3.85;;
8993;SDS011;4532;50.886;4.700;2023-09-07T13:52:21;6.18;;;4.13;;
8993;SDS011;4532;50.886;4.700;2023-09-07T13:54:52;5.88;;;3.88;;
8993;SDS011;4532;50.886;4.700;2023-09-07T13:57:21;8.73;;;4.00;;
8993;SDS011;4532;50.886;4.700;2023-09-07T13:59:49;5.50;;;3.70;;
8993;SDS011;4532;50.886;4.700;2023-09-07T14:02:18;5.05;;;3.97;;
8993;SDS011;4532;50.886;4.700;2023-09-07T14:04:51;7.15;;;4.00;;
8993;SDS011;4532;50.886;4.700;2023-09-07T14:07:23;6.43;;;3.78;;
8993;SDS011;4532;50.886;4.700;2023-09-07T14:09:53;4.13;;;3.72;;
8993;SDS011;4532;50.886;4.700;2023-09-07T14:12:21;4.20;;;3.42;;
8993;SDS011;4532;50.886;4.700;2023-09-07T14:14:49;4.75;;;3.70;;
8993;SDS011;4532;50.886;4.700;2023-09-07T14:17:16;6.07;;;3.63;;
8993;SDS011;4532;50.886;4.700;2023-09-07T14:19:46;6.10;;;3.55;;
8993;SDS011;4532;50.886;4.700;2023-09-07T14:22:13;10.10;;;4.15;;
8993;SDS011;4532;50.886;4.700;2023-09-07T14:24:40;4.88;;;3.90;;
8993;SDS011;4532;50.886;4.700;2023-09-07T14:27:07;6.30;;;3.90;;
8993;SDS011;4532;50.886;4.700;2023-09-07T14:29:35;6.70;;;4.07;;
8993;SDS011;4532;50.886;4.700;2023-09-07T14:32:05;6.40;;;3.80;;
8993;SDS011;4532;50.886;4.700;2023-09-07T14:34:32;6.35;;;4.10;;
8993;SDS011;4532;50.886;4.700;2023-09-07T14:37:01;6.63;;;4.07;;
8993;SDS011;4532;50.886;4.700;2023-09-07T14:39:32;7.68;;;3.92;;
8993;SDS011;4532;50.886;4.700;2023-09-07T14:42:04;6.22;;;3.95;;
8993;SDS011;4532;50.886;4.700;2023-09-07T14:44:40;6.68;;;4.00;;
8993;SDS011;4532;50.886;4.700;2023-09-07T14:47:10;4.65;;;4.00;;
8993;SDS011;4532;50.886;4.700;2023-09-07T14:49:41;6.70;;;4.10;;
8993;SDS011;4532;50.886;4.700;2023-09-07T14:52:11;8.55;;;4.20;;
8993;SDS011;4532;50.886;4.700;2023-09-07T14:54:38;4.82;;;3.80;;
8993;SDS011;4532;50.886;4.700;2023-09-07T14:57:10;5.03;;;3.78;;
8993;SDS011;4532;50.886;4.700;2023-09-07T14:59:37;7.78;;;3.35;;
8993;SDS011;4532;50.886;4.700;2023-09-07T15:02:06;6.63;;;3.80;;
8993;SDS011;4532;50.886;4.700;2023-09-07T15:04:33;8.15;;;3.65;;
8993;SDS011;4532;50.886;4.700;2023-09-07T15:07:01;3.72;;;3.42;;
8993;SDS011;4532;50.886;4.700;2023-09-07T15:09:31;4.35;;;3.67;;
8993;SDS011;4532;50.886;4.700;2023-09-07T15:11:58;9.73;;;3.97;;
8993;SDS011;4532;50.886;4.700;2023-09-07T15:14:26;7.30;;;3.80;;
8993;SDS011;4532;50.886;4.700;2023-09-07T15:16:58;4.28;;;3.83;;
8993;SDS011;4532;50.886;4.700;2023-09-07T15:19:27;4.90;;;3.88;;
8993;SDS011;4532;50.886;4.700;2023-09-07T15:21:56;7.90;;;3.40;;
8993;SDS011;4532;50.886;4.700;2023-09-07T15:24:23;4.22;;;3.80;;